Time;durP1;ratioP1;P1;durP2;ratioP2;P2;SDS_P1;SDS_P2;PMS_P1;PMS_P2;Temp;Humidity;BMP_temperature;BMP_pressure;BME280_temperature;BME280_humidity;BME280_pressure;Samples;Min_cycle;Max_cycle;Signal;HPM_P1;HPM_P2
2023/11/11 00:03:12;;;;;;;0.52;0.32;;;;;;;;;;4900354;29;20041;-59
2023/11/11 00:05:50;;;;;;;1.00;0.50;;;;;;;;;;4916771;28;20063;-59
2023/11/11 00:08:34;;;;;;;0.32;0.20;;;;;;;;;;4958274;28;20418;-60
2023/11/11 00:11:01;;;;;;;0.85;0.40;;;;;;;;;;4960052;29;20020;-57
2023/11/11 00:14:12;;;;;;;0.50;0.20;;;;;;;;;;4960824;29;20055;-57
2023/11/11 00:17:07;;;;;;;0.88;0.40;;;;;;;;;;4960474;29;20092;-57
2023/11/11 00:19:39;;;;;;;1.38;0.45;;;;;;;;;;4959582;28;20516;-58
2023/11/11 00:22:19;;;;;;;1.00;0.50;;;;;;;;;;4961006;29;20055;-58
2023/11/11 00:24:54;;;;;;;0.55;0.30;;;;;;;;;;4959457;29;20026;-57
2023/11/11 00:30:50;;;;;;;1.10;0.50;;;;;;;;;;4920338;29;20032;-60
2023/11/11 00:33:22;;;;;;;1.00;0.52;;;;;;;;;;4919538;29;20040;-60
2023/11/11 00:36:33;;;;;;;1.55;0.35;;;;;;;;;;4957804;29;20032;-60
2023/11/11 00:39:15;;;;;;;0.52;0.30;;;;;;;;;;4941171;29;20042;-60
2023/11/11 00:42:10;;;;;;;3.15;0.30;;;;;;;;;;4962173;29;20034;-60
2023/11/11 00:44:48;;;;;;;0.50;0.22;;;;;;;;;;4960962;28;20035;-60
2023/11/11 00:47:29;;;;;;;1.98;0.45;;;;;;;;;;4964421;29;20031;-60
2023/11/11 00:50:09;;;;;;;0.55;0.30;;;;;;;;;;4962405;28;20043;-60
2023/11/11 00:53:02;;;;;;;0.98;0.57;;;;;;;;;;4962208;29;20122;-60
2023/11/11 00:55:58;;;;;;;0.50;0.30;;;;;;;;;;4962753;28;20049;-60
2023/11/11 00:58:34;;;;;;;0.50;0.32;;;;;;;;;;4961415;29;20043;-60
2023/11/11 01:01:24;;;;;;;0.80;0.73;;;;;;;;;;4961235;29;20077;-60
2023/11/11 01:04:05;;;;;;;0.52;0.22;;;;;;;;;;4962248;29;20039;-60
2023/11/11 01:09:45;;;;;;;4.53;0.70;;;;;;;;;;4956742;29;20066;-60
2023/11/11 01:12:19;;;;;;;0.90;0.30;;;;;;;;;;4960574;29;20039;-60
2023/11/11 01:15:12;;;;;;;3.90;0.43;;;;;;;;;;4959856;28;20035;-60
2023/11/11 01:17:47;;;;;;;0.20;0.20;;;;;;;;;;4962078;28;20031;-60
2023/11/11 01:20:29;;;;;;;0.95;0.38;;;;;;;;;;4961867;28;20031;-60
2023/11/11 01:23:01;;;;;;;;;;;;;;;;;;4962775;29;20036;-60
2023/11/11 01:28:59;;;;;;;4.38;0.55;;;;;;;;;;4952271;29;20147;-60
2023/11/11 01:31:49;;;;;;;0.55;0.20;;;;;;;;;;4960742;29;20031;-60
2023/11/11 01:34:22;;;;;;;;;;;;;;;;;;4960821;29;20039;-60
2023/11/11 01:36:51;;;;;;;0.90;0.40;;;;;;;;;;4960707;29;19958;-60
2023/11/11 01:39:26;;;;;;;0.82;0.40;;;;;;;;;;4961545;29;20027;-60
2023/11/11 01:45:32;;;;;;;;;;;;;;;;;;;;;
2023/11/11 01:47:59;;;;;;;0.10;0.10;;;;;;;;;;4960446;29;20119;-60
2023/11/11 01:50:41;;;;;;;0.77;0.40;;;;;;;;;;4962907;28;20059;-60
2023/11/11 02:05:15;;;;;;;0.25;0.13;;;;;;;;;;4957181;29;20049;-60
2023/11/11 02:10:53;;;;;;;1.45;0.22;;;;;;;;;;4963033;29;20568;-60
2023/11/11 02:13:50;;;;;;;0.30;0.20;;;;;;;;;;4963854;29;20049;-60
2023/11/11 02:16:49;;;;;;;3.28;0.38;;;;;;;;;;4962828;29;20031;-60
2023/11/11 02:19:18;;;;;;;0.30;0.17;;;;;;;;;;4964385;29;20031;-59
2023/11/11 02:27:42;;;;;;;0.47;0.20;;;;;;;;;;4947300;29;20031;-60
2023/11/11 02:36:00;;;;;;;0.10;0.10;;;;;;;;;;4922624;29;20077;-57
2023/11/11 02:38:30;;;;;;;0.10;0.10;;;;;;;;;;4965785;28;20034;-57
2023/11/11 02:41:12;;;;;;;1.38;0.30;;;;;;;;;;4962463;29;20507;-57
2023/11/11 02:46:31;;;;;;;4.00;0.22;;;;;;;;;;4962114;29;20516;-57
2023/11/11 02:49:09;;;;;;;0.00;0.00;;;;;;;;;;4967234;28;20046;-57
2023/11/11 02:54:54;;;;;;;0.20;0.10;;;;;;;;;;4981541;28;20126;-57
2023/11/11 02:57:50;;;;;;;0.35;0.13;;;;;;;;;;4980668;28;20037;-57
2023/11/11 03:00:21;;;;;;;0.20;0.10;;;;;;;;;;4981480;28;20437;-57
2023/11/11 03:05:45;;;;;;;0.25;0.20;;;;;;;;;;4967700;28;20042;-57
2023/11/11 03:08:41;;;;;;;0.70;0.30;;;;;;;;;;4939414;29;20052;-57
2023/11/11 03:14:11;;;;;;;0.35;0.13;;;;;;;;;;4940375;28;20054;-57
2023/11/11 03:17:09;;;;;;;0.63;0.35;;;;;;;;;;4980285;28;20031;-58
2023/11/11 03:22:55;;;;;;;1.33;0.57;;;;;;;;;;4981554;28;20043;-57
2023/11/11 03:26:03;;;;;;;0.30;0.20;;;;;;;;;;4968226;28;20043;-57
2023/11/11 03:28:41;;;;;;;0.57;0.30;;;;;;;;;;4921400;29;20036;-56
2023/11/11 03:31:25;;;;;;;1.02;0.40;;;;;;;;;;4921579;29;20043;-57
2023/11/11 03:34:21;;;;;;;1.10;0.50;;;;;;;;;;4922205;29;20032;-57
2023/11/11 03:37:06;;;;;;;;;;;;;;;;;;;;;
2023/11/11 03:42:28;;;;;;;1.02;0.47;;;;;;;;;;4952095;29;20037;-57
2023/11/11 03:45:19;;;;;;;1.17;0.43;;;;;;;;;;4959376;28;20090;-57
2023/11/11 03:48:09;;;;;;;1.08;0.52;;;;;;;;;;4958497;28;20399;-57
2023/11/11 03:51:23;;;;;;;;;;;;;;;;;;;;;
2023/11/11 03:53:53;;;;;;;0.85;0.52;;;;;;;;;;4927390;29;20086;-58
2023/11/11 03:56:33;;;;;;;0.82;0.38;;;;;;;;;;4959403;28;20110;-58
2023/11/11 04:02:03;;;;;;;0.57;0.30;;;;;;;;;;4940652;28;20469;-57
2023/11/11 04:04:38;;;;;;;0.82;0.40;;;;;;;;;;4980893;28;20031;-57
2023/11/11 04:07:30;;;;;;;0.70;0.40;;;;;;;;;;4979949;28;20019;-57
2023/11/11 04:10:05;;;;;;;0.73;0.50;;;;;;;;;;4981032;28;20031;-57
2023/11/11 04:12:42;;;;;;;0.80;0.55;;;;;;;;;;4980651;28;20119;-57
2023/11/11 04:15:44;;;;;;;1.13;0.68;;;;;;;;;;4979327;28;20034;-57
2023/11/11 04:24:12;;;;;;;0.80;0.38;;;;;;;;;;4980658;28;20046;-57
2023/11/11 04:27:04;;;;;;;;;;;;;;;;;;;;;
2023/11/11 04:29:59;;;;;;;0.70;0.30;;;;;;;;;;4972779;28;20086;-58
2023/11/11 04:33:23;;;;;;;1.08;0.43;;;;;;;;;;4983936;28;20090;-57
2023/11/11 04:36:05;;;;;;;1.27;0.50;;;;;;;;;;4920176;29;20497;-58
2023/11/11 04:38:32;;;;;;;1.50;0.63;;;;;;;;;;4929269;28;20039;-58
2023/11/11 04:43:55;;;;;;;1.15;0.50;;;;;;;;;;4983779;28;20062;-57
2023/11/11 04:49:10;;;;;;;0.88;0.45;;;;;;;;;;4983995;28;20097;-57
2023/11/11 04:52:05;;;;;;;1.98;0.60;;;;;;;;;;4983567;28;20069;-57
2023/11/11 04:57:53;;;;;;;0.95;0.55;;;;;;;;;;4973542;28;20078;-58
2023/11/11 05:01:01;;;;;;;1.23;0.68;;;;;;;;;;4983677;28;20030;-58
2023/11/11 05:03:48;;;;;;;1.75;0.85;;;;;;;;;;4983407;28;20041;-58
2023/11/11 05:06:41;;;;;;;;;;;;;;;;;;;;;
2023/11/11 05:12:35;;;;;;;3.83;0.88;;;;;;;;;;4983428;28;20039;-58
2023/11/11 05:15:50;;;;;;;1.73;0.88;;;;;;;;;;4960770;28;20385;-57
2023/11/11 05:21:27;;;;;;;1.88;1.10;;;;;;;;;;4983473;28;20033;-57
2023/11/11 05:24:03;;;;;;;1.75;1.00;;;;;;;;;;4970179;28;20070;-58
2023/11/11 05:26:38;;;;;;;1.38;0.77;;;;;;;;;;4982789;28;20417;-58
2023/11/11 05:29:36;;;;;;;;;;;;;;;;;;;;;
2023/11/11 05:32:44;;;;;;;2.17;0.90;;;;;;;;;;4979068;28;20102;-58
2023/11/11 05:35:40;;;;;;;1.60;0.82;;;;;;;;;;4982280;28;20085;-59
2023/11/11 05:38:29;;;;;;;;;;;;;;;;;;;;;
2023/11/11 05:41:20;;;;;;;1.60;0.88;;;;;;;;;;4980085;28;20094;-59
2023/11/11 05:52:58;;;;;;;;;;;;;;;;;;;;;
2023/11/11 05:55:40;;;;;;;1.42;0.85;;;;;;;;;;4982528;28;20090;-59
2023/11/11 05:58:32;;;;;;;1.85;0.80;;;;;;;;;;4981743;28;20031;-59
2023/11/11 06:01:20;;;;;;;;;;;;;;;;;;;;;
2023/11/11 06:03:50;;;;;;;2.78;1.65;;;;;;;;;;4971150;28;20049;-58
2023/11/11 06:06:29;;;;;;;;;;;;;;;;;;;;;
2023/11/11 06:09:26;;;;;;;4.47;1.45;;;;;;;;;;4972308;28;20095;-58
2023/11/11 06:12:05;;;;;;;1.92;1.23;;;;;;;;;;4974203;28;20115;-59
2023/11/11 06:18:20;;;;;;;1.77;1.10;;;;;;;;;;4972043;28;20552;-58
2023/11/11 06:20:52;;;;;;;4.13;1.40;;;;;;;;;;4989389;28;20037;-58
2023/11/11 06:23:22;;;;;;;3.45;1.40;;;;;;;;;;4974146;28;20035;-59
2023/11/11 06:26:00;;;;;;;1.90;1.15;;;;;;;;;;4972694;28;20062;-58
2023/11/11 06:28:44;;;;;;;2.08;0.77;;;;;;;;;;4968390;28;20046;-58
2023/11/11 06:31:26;;;;;;;;;;;;;;;;;;;;;
2023/11/11 06:34:23;;;;;;;2.55;1.13;;;;;;;;;;4951556;28;20063;-58
2023/11/11 06:37:09;;;;;;;;;;;;;;;;;;;;;
2023/11/11 06:39:56;;;;;;;3.35;1.00;;;;;;;;;;4944325;28;20433;-58
2023/11/11 06:42:41;;;;;;;2.10;1.10;;;;;;;;;;4954928;28;20038;-58
2023/11/11 06:45:16;;;;;;;1.83;0.82;;;;;;;;;;4964929;28;20026;-57
2023/11/11 06:48:01;;;;;;;2.20;1.08;;;;;;;;;;4972826;28;20042;-58
2023/11/11 06:53:51;;;;;;;1.55;1.08;;;;;;;;;;4931435;28;20043;-57
2023/11/11 06:56:23;;;;;;;2.08;0.85;;;;;;;;;;4973209;28;20023;-57
2023/11/11 06:58:52;;;;;;;1.98;1.02;;;;;;;;;;4973714;28;20019;-56
2023/11/11 07:01:44;;;;;;;1.67;1.00;;;;;;;;;;4974759;28;20046;-58
2023/11/11 07:04:16;;;;;;;2.70;1.20;;;;;;;;;;4963648;28;20054;-58
2023/11/11 07:06:51;;;;;;;2.53;0.93;;;;;;;;;;4973562;28;20480;-57
2023/11/11 07:09:32;;;;;;;1.27;0.60;;;;;;;;;;4974589;28;20434;-58
2023/11/11 07:12:12;;;;;;;1.10;0.60;;;;;;;;;;4969996;28;20031;-58
2023/11/11 07:14:48;;;;;;;;;;;;;;;;;;4975500;28;20039;-57
2023/11/11 07:20:28;;;;;;;2.80;0.75;;;;;;;;;;4975581;28;20089;-57
2023/11/11 07:26:19;;;;;;;1.25;0.77;;;;;;;;;;4973712;28;20034;-57
2023/11/11 07:28:49;;;;;;;0.60;0.30;;;;;;;;;;4967123;28;20062;-58
2023/11/11 07:31:22;;;;;;;1.60;0.60;;;;;;;;;;4972523;28;20444;-58
2023/11/11 07:33:51;;;;;;;1.63;0.85;;;;;;;;;;4973938;28;20042;-58
2023/11/11 07:39:43;;;;;;;1.33;0.50;;;;;;;;;;4923794;28;20032;-58
2023/11/11 07:42:39;;;;;;;1.33;0.57;;;;;;;;;;4960515;28;20074;-56
2023/11/11 07:48:39;;;;;;;;;;;;;;;;;;;;;
2023/11/11 07:51:11;;;;;;;1.33;0.55;;;;;;;;;;4919494;29;20119;-59
2023/11/11 07:56:45;;;;;;;1.70;0.77;;;;;;;;;;4986121;28;20551;-58
2023/11/11 07:59:30;;;;;;;1.80;0.80;;;;;;;;;;4985353;28;20023;-57
2023/11/11 08:02:24;;;;;;;1.23;0.65;;;;;;;;;;4985106;28;20041;-58
2023/11/11 08:05:11;;;;;;;1.77;0.60;;;;;;;;;;4962138;28;20055;-58
2023/11/11 08:08:03;;;;;;;10.15;1.13;;;;;;;;;;4985047;28;20078;-56
2023/11/11 08:10:39;;;;;;;1.75;0.75;;;;;;;;;;4985689;28;20078;-58
2023/11/11 08:22:15;;;;;;;1.55;0.90;;;;;;;;;;4981275;28;20365;-58
2023/11/11 08:25:28;;;;;;;1.90;1.15;;;;;;;;;;4986239;28;20037;-58
2023/11/11 08:28:04;;;;;;;2.65;0.82;;;;;;;;;;4925021;29;20036;-58
2023/11/11 08:30:40;;;;;;;1.88;1.05;;;;;;;;;;4981075;28;20465;-57
2023/11/11 08:39:32;;;;;;;2.25;1.38;;;;;;;;;;4955851;28;20053;-56
2023/11/11 08:42:26;;;;;;;2.08;0.90;;;;;;;;;;4974077;28;20038;-57
2023/11/11 08:45:29;;;;;;;1.02;0.60;;;;;;;;;;4978160;28;20150;-57
2023/11/11 08:48:18;;;;;;;1.45;0.70;;;;;;;;;;4944442;28;20057;-56
2023/11/11 08:51:02;;;;;;;1.98;1.25;;;;;;;;;;4973965;28;20098;-57
2023/11/11 08:56:55;;;;;;;2.30;1.13;;;;;;;;;;4979961;28;20093;-54
2023/11/11 09:03:06;;;;;;;2.78;1.13;;;;;;;;;;4963385;28;20174;-56
2023/11/11 09:11:37;;;;;;;2.53;0.98;;;;;;;;;;4897091;29;20091;-57
2023/11/11 09:14:33;;;;;;;2.72;1.25;;;;;;;;;;4897006;29;20076;-59
2023/11/11 09:17:14;;;;;;;2.60;1.33;;;;;;;;;;4957722;28;20515;-57
2023/11/11 09:22:38;;;;;;;3.13;1.20;;;;;;;;;;4975804;28;20126;-57
2023/11/11 09:25:42;;;;;;;1.52;0.85;;;;;;;;;;4976130;28;20354;-56
2023/11/11 09:28:41;;;;;;;1.52;0.95;;;;;;;;;;4944691;28;20485;-58
2023/11/11 09:31:14;;;;;;;2.03;1.00;;;;;;;;;;4975382;28;20031;-57
2023/11/11 09:34:15;;;;;;;2.08;1.20;;;;;;;;;;4975239;28;20031;-58
2023/11/11 09:36:59;;;;;;;;;;;;;;;;;;4975712;28;20102;-57
2023/11/11 09:39:33;;;;;;;2.47;1.00;;;;;;;;;;4976334;28;20272;-57
2023/11/11 09:42:18;;;;;;;2.30;0.93;;;;;;;;;;4983304;28;20035;-58
2023/11/11 09:45:16;;;;;;;1.98;1.02;;;;;;;;;;4979231;28;20181;-57
2023/11/11 09:48:03;;;;;;;1.95;1.10;;;;;;;;;;4984590;28;20027;-58
2023/11/11 09:50:45;;;;;;;3.33;1.63;;;;;;;;;;4983612;28;20046;-57
2023/11/11 09:53:34;;;;;;;;;;;;;;;;;;;;;
2023/11/11 09:56:04;;;;;;;2.90;1.40;;;;;;;;;;4983868;28;20087;-57
2023/11/11 10:01:51;;;;;;;1.83;1.05;;;;;;;;;;4913370;28;20550;-57
2023/11/11 10:04:38;;;;;;;3.25;1.20;;;;;;;;;;4981177;28;20053;-58
2023/11/11 10:07:37;;;;;;;4.03;1.05;;;;;;;;;;4983876;28;20062;-58
2023/11/11 10:10:21;;;;;;;2.65;1.30;;;;;;;;;;4978710;28;20558;-58
2023/11/11 10:13:30;;;;;;;1.88;1.00;;;;;;;;;;4984423;28;20037;-58
2023/11/11 10:16:29;;;;;;;2.22;1.02;;;;;;;;;;4983469;28;20058;-58
2023/11/11 10:19:33;;;;;;;1.80;1.00;;;;;;;;;;4980137;28;20117;-57
2023/11/11 10:22:03;;;;;;;1.70;1.00;;;;;;;;;;4983178;28;20417;-57
2023/11/11 10:27:47;;;;;;;1.30;0.65;;;;;;;;;;4932913;29;20114;-56
2023/11/11 10:33:34;;;;;;;2.38;0.90;;;;;;;;;;4942710;28;20071;-58
2023/11/11 10:39:28;;;;;;;1.73;1.10;;;;;;;;;;4963327;29;20110;-57
2023/11/11 10:41:57;;;;;;;1.58;0.80;;;;;;;;;;4969429;28;20122;-58
2023/11/11 10:44:40;;;;;;;2.25;1.10;;;;;;;;;;4960950;29;20572;-57
2023/11/11 10:47:16;;;;;;;1.45;1.05;;;;;;;;;;4978842;28;20038;-58
2023/11/11 10:49:43;;;;;;;1.30;0.70;;;;;;;;;;4978968;28;20027;-57
2023/11/11 10:52:31;;;;;;;1.75;0.80;;;;;;;;;;4979183;28;20030;-58
2023/11/11 10:55:11;;;;;;;2.25;0.88;;;;;;;;;;4979911;28;20026;-58
2023/11/11 10:58:12;;;;;;;1.00;0.50;;;;;;;;;;4974528;28;20069;-58
2023/11/11 11:00:54;;;;;;;1.83;0.80;;;;;;;;;;4978799;28;20030;-57
2023/11/11 11:12:33;;;;;;;2.40;0.95;;;;;;;;;;4958572;29;20042;-58
2023/11/11 11:15:06;;;;;;;1.63;0.90;;;;;;;;;;4961385;28;20164;-58
2023/11/11 11:17:40;;;;;;;1.33;0.70;;;;;;;;;;4975520;28;20047;-58
2023/11/11 11:20:27;;;;;;;2.03;0.80;;;;;;;;;;4978015;28;20043;-57
2023/11/11 11:26:31;;;;;;;2.78;1.15;;;;;;;;;;4919738;28;20088;-58
2023/11/11 11:29:16;;;;;;;1.52;0.90;;;;;;;;;;4977735;28;20023;-57
2023/11/11 11:35:24;;;;;;;2.63;1.73;;;;;;;;;;4944598;28;20081;-58
2023/11/11 11:41:11;;;;;;;1.90;0.85;;;;;;;;;;4978394;28;20034;-58
2023/11/11 11:44:15;;;;;;;;;;;;;;;;;;;;;
2023/11/11 11:46:54;;;;;;;2.55;0.90;;;;;;;;;;4975394;28;20153;-58
2023/11/11 11:49:42;;;;;;;1.27;0.73;;;;;;;;;;4979788;28;20066;-58
2023/11/11 11:52:20;;;;;;;2.17;0.60;;;;;;;;;;4978557;28;20066;-57
2023/11/11 11:55:16;;;;;;;1.30;0.80;;;;;;;;;;4980384;28;20023;-58
2023/11/11 11:57:58;;;;;;;1.60;0.93;;;;;;;;;;4978819;28;20043;-58
2023/11/11 12:03:22;;;;;;;1.20;0.60;;;;;;;;;;4941580;28;20109;-56
2023/11/11 12:06:12;;;;;;;1.63;0.90;;;;;;;;;;4979435;28;20042;-55
2023/11/11 12:09:09;;;;;;;1.38;0.75;;;;;;;;;;4978078;28;20023;-58
2023/11/11 12:11:45;;;;;;;2.45;0.80;;;;;;;;;;4967269;28;20031;-56
2023/11/11 12:14:22;;;;;;;1.35;0.68;;;;;;;;;;4979989;28;20027;-58
2023/11/11 12:17:13;;;;;;;0.95;0.47;;;;;;;;;;4978747;28;20033;-58
2023/11/11 12:20:06;;;;;;;1.25;0.70;;;;;;;;;;4979095;28;20481;-57
2023/11/11 12:22:32;;;;;;;1.08;0.52;;;;;;;;;;4943045;28;20512;-58
2023/11/11 12:31:22;;;;;;;2.65;0.50;;;;;;;;;;4895865;29;20044;-58
2023/11/11 12:34:18;;;;;;;1.02;0.43;;;;;;;;;;4955846;28;20038;-58
2023/11/11 12:37:05;;;;;;;1.10;0.55;;;;;;;;;;4960157;28;20035;-56
2023/11/11 12:39:50;;;;;;;1.48;0.75;;;;;;;;;;4978849;28;20099;-58
2023/11/11 12:42:31;;;;;;;1.63;0.75;;;;;;;;;;4961234;29;20051;-58
2023/11/11 12:45:06;;;;;;;1.58;1.00;;;;;;;;;;4952214;29;20422;-56
2023/11/11 12:47:57;;;;;;;1.10;0.60;;;;;;;;;;4982372;28;20043;-56
2023/11/11 12:50:42;;;;;;;2.28;0.77;;;;;;;;;;4982863;28;20034;-58
2023/11/11 12:53:23;;;;;;;1.50;0.80;;;;;;;;;;4983126;28;20045;-57
2023/11/11 12:56:19;;;;;;;2.67;0.88;;;;;;;;;;4984036;28;20354;-58
2023/11/11 13:02:34;;;;;;;;;;;;;;;;;;;;;
2023/11/11 13:05:11;;;;;;;1.45;0.60;;;;;;;;;;4967287;28;20107;-58
2023/11/11 13:10:44;;;;;;;2.67;1.00;;;;;;;;;;4984212;28;20058;-57
2023/11/11 13:13:23;;;;;;;1.20;0.60;;;;;;;;;;4983874;28;20025;-57
2023/11/11 13:15:56;;;;;;;1.30;0.75;;;;;;;;;;4984438;28;20069;-57
2023/11/11 13:18:35;;;;;;;1.73;0.77;;;;;;;;;;4983510;28;20489;-58
2023/11/11 13:21:08;;;;;;;1.23;0.80;;;;;;;;;;4983247;28;20035;-57
2023/11/11 13:24:06;;;;;;;1.67;1.17;;;;;;;;;;4982163;28;20047;-57
2023/11/11 13:27:22;;;;;;;1.33;0.60;;;;;;;;;;4969971;28;20064;-57
2023/11/11 13:30:23;;;;;;;1.98;1.20;;;;;;;;;;4981924;28;20099;-58
2023/11/11 13:33:00;;;;;;;2.20;0.90;;;;;;;;;;4978873;28;20050;-58
2023/11/11 13:36:14;;;;;;;1.67;0.93;;;;;;;;;;4982345;28;20030;-58
2023/11/11 13:39:29;;;;;;;;;;;;;;;;;;;;;
2023/11/11 13:42:10;;;;;;;1.55;0.95;;;;;;;;;;4974352;28;20098;-57
2023/11/11 13:45:04;;;;;;;1.48;0.82;;;;;;;;;;4963777;28;20066;-58
2023/11/11 13:47:56;;;;;;;1.38;0.60;;;;;;;;;;4975280;28;20054;-57
2023/11/11 13:50:45;;;;;;;1.38;0.70;;;;;;;;;;4966216;28;20791;-58
2023/11/11 13:57:00;;;;;;;4.28;0.90;;;;;;;;;;4965212;28;20033;-58
2023/11/11 13:59:42;;;;;;;3.45;0.88;;;;;;;;;;4969343;28;20086;-56
2023/11/11 14:05:09;;;;;;;2.20;1.13;;;;;;;;;;4976402;28;20534;-58
2023/11/11 14:08:04;;;;;;;3.03;1.00;;;;;;;;;;4974965;28;20442;-59
2023/11/11 14:13:50;;;;;;;1.55;0.88;;;;;;;;;;4957608;28;20034;-53
2023/11/11 14:22:29;;;;;;;1.98;1.00;;;;;;;;;;4965558;28;20103;-56
2023/11/11 14:27:54;;;;;;;1.35;0.70;;;;;;;;;;4974591;28;20094;-55
2023/11/11 14:30:46;;;;;;;1.30;0.60;;;;;;;;;;4971744;28;20034;-53
2023/11/11 14:33:42;;;;;;;1.55;0.70;;;;;;;;;;4976778;28;20093;-53
2023/11/11 14:37:07;;;;;;;1.92;1.10;;;;;;;;;;4967141;28;20404;-52
2023/11/11 14:39:45;;;;;;;1.75;0.77;;;;;;;;;;4920826;28;20047;-53
2023/11/11 14:42:39;;;;;;;1.70;0.85;;;;;;;;;;4965340;28;20047;-54
2023/11/11 14:48:22;;;;;;;2.55;1.00;;;;;;;;;;4939220;28;20038;-53
2023/11/11 14:53:48;;;;;;;2.75;0.88;;;;;;;;;;4974246;28;20042;-54
2023/11/11 14:56:19;;;;;;;1.80;0.95;;;;;;;;;;4975058;28;20019;-52
2023/11/11 15:02:00;;;;;;;2.40;0.80;;;;;;;;;;4949651;28;19962;-50
2023/11/11 15:04:56;;;;;;;2.22;0.85;;;;;;;;;;4948544;28;20099;-53
2023/11/11 15:07:35;;;;;;;2.13;0.75;;;;;;;;;;4950717;28;20540;-54
2023/11/11 15:10:17;;;;;;;1.25;0.68;;;;;;;;;;4950614;28;20153;-53
2023/11/11 15:13:06;;;;;;;3.33;0.88;;;;;;;;;;4941632;28;20081;-53
2023/11/11 15:15:43;;;;;;;7.88;0.90;;;;;;;;;;4987888;28;20058;-54
2023/11/11 15:18:42;;;;;;;1.38;0.55;;;;;;;;;;4963832;28;20035;-53
2023/11/11 15:21:23;;;;;;;2.05;0.77;;;;;;;;;;4972552;28;20026;-57
2023/11/11 15:24:07;;;;;;;1.23;0.65;;;;;;;;;;4970587;28;20031;-53
2023/11/11 15:27:14;;;;;;;1.73;0.98;;;;;;;;;;4970785;28;20042;-52
2023/11/11 15:30:09;;;;;;;1.38;0.88;;;;;;;;;;4969891;28;20030;-55
2023/11/11 15:33:01;;;;;;;4.07;1.10;;;;;;;;;;4961750;28;20031;-54
2023/11/11 15:35:27;;;;;;;1.80;0.75;;;;;;;;;;4981489;28;20409;-55
2023/11/11 15:38:21;;;;;;;2.10;0.70;;;;;;;;;;4972361;28;20023;-55
2023/11/11 15:41:13;;;;;;;2.50;1.08;;;;;;;;;;4972869;28;20042;-52
2023/11/11 15:44:08;;;;;;;0.82;0.38;;;;;;;;;;4883120;29;20408;-52
2023/11/11 15:46:37;;;;;;;1.73;0.73;;;;;;;;;;4982246;28;20050;-52
2023/11/11 15:49:31;;;;;;;1.77;0.77;;;;;;;;;;4974001;28;20146;-55
2023/11/11 15:52:18;;;;;;;2.00;1.05;;;;;;;;;;4971477;28;20038;-49
2023/11/11 15:55:33;;;;;;;;;;;;;;;;;;;;;
2023/11/11 16:01:14;;;;;;;1.50;0.73;;;;;;;;;;4954808;28;20035;-55
2023/11/11 16:03:52;;;;;;;1.20;0.70;;;;;;;;;;4969515;28;20501;-54
2023/11/11 16:06:40;;;;;;;2.15;1.00;;;;;;;;;;4966657;28;20023;-55
2023/11/11 16:09:32;;;;;;;2.17;1.02;;;;;;;;;;4974344;28;20051;-52
2023/11/11 16:12:04;;;;;;;2.45;1.02;;;;;;;;;;4964618;28;20038;-55
2023/11/11 16:15:11;;;;;;;2.13;1.10;;;;;;;;;;4975996;28;20046;-55
2023/11/11 16:17:46;;;;;;;2.35;1.15;;;;;;;;;;4916907;29;20036;-55
2023/11/11 16:20:45;;;;;;;1.67;1.08;;;;;;;;;;4917553;29;20127;-50
2023/11/11 16:23:34;;;;;;;3.60;1.40;;;;;;;;;;4914723;29;20047;-56
2023/11/11 16:26:24;;;;;;;1.23;0.80;;;;;;;;;;4915078;29;20028;-52
2023/11/11 16:28:50;;;;;;;1.83;1.45;;;;;;;;;;4974904;28;20039;-53
2023/11/11 16:31:56;;;;;;;2.50;1.15;;;;;;;;;;4975163;28;20089;-53
2023/11/11 16:34:41;;;;;;;2.28;1.27;;;;;;;;;;4969609;28;20370;-51
2023/11/11 16:37:30;;;;;;;3.45;1.73;;;;;;;;;;4972590;28;20027;-55
2023/11/11 16:40:06;;;;;;;1.58;0.68;;;;;;;;;;4957199;28;20100;-55
2023/11/11 16:42:48;;;;;;;2.05;0.90;;;;;;;;;;4973605;28;20109;-54
2023/11/11 16:45:17;;;;;;;6.25;1.30;;;;;;;;;;4969524;28;20504;-51
2023/11/11 16:47:59;;;;;;;2.13;1.33;;;;;;;;;;4973638;28;20034;-54
2023/11/11 16:51:02;;;;;;;;;;;;;;;;;;;;;
2023/11/11 16:57:43;;;;;;;1.95;1.30;;;;;;;;;;4954455;28;20425;-56
2023/11/11 17:00:17;;;;;;;2.90;1.52;;;;;;;;;;4972435;28;20062;-52
2023/11/11 17:03:08;;;;;;;4.65;1.73;;;;;;;;;;4966216;28;20043;-56
2023/11/11 17:05:50;;;;;;;3.20;1.30;;;;;;;;;;4963082;28;20025;-52
2023/11/11 17:08:38;;;;;;;2.33;1.23;;;;;;;;;;4962931;28;20180;-53
2023/11/11 17:11:30;;;;;;;3.25;2.00;;;;;;;;;;4973650;28;20126;-54
2023/11/11 17:13:59;;;;;;;3.03;1.60;;;;;;;;;;4966756;28;20416;-50
2023/11/11 17:17:04;;;;;;;7.07;1.50;;;;;;;;;;4969548;28;20043;-56
2023/11/11 17:22:48;;;;;;;3.65;1.60;;;;;;;;;;4967461;28;20045;-56
2023/11/11 17:34:36;;;;;;;4.30;2.10;;;;;;;;;;4960686;28;20031;-52
2023/11/11 17:37:14;;;;;;;5.47;2.00;;;;;;;;;;4967276;28;20855;-54
2023/11/11 17:39:52;;;;;;;3.20;2.40;;;;;;;;;;4972415;28;20046;-53
2023/11/11 17:42:27;;;;;;;5.20;2.72;;;;;;;;;;4972790;28;20038;-55
2023/11/11 17:45:12;;;;;;;4.97;2.63;;;;;;;;;;4974617;28;20613;-52
2023/11/11 17:48:05;;;;;;;4.43;2.83;;;;;;;;;;4972398;28;20085;-54
2023/11/11 17:51:08;;;;;;;4.45;2.38;;;;;;;;;;4929637;29;20036;-56
2023/11/11 17:56:44;;;;;;;3.45;2.08;;;;;;;;;;4964282;28;20123;-52
2023/11/11 18:03:12;;;;;;;3.08;1.60;;;;;;;;;;4926877;29;20050;-51
2023/11/11 18:06:13;;;;;;;3.70;1.90;;;;;;;;;;4925488;29;20472;-57
2023/11/11 18:08:55;;;;;;;4.45;2.17;;;;;;;;;;4988769;28;20189;-58
2023/11/11 18:11:39;;;;;;;2.13;1.30;;;;;;;;;;4978290;28;20050;-58
2023/11/11 18:14:06;;;;;;;5.93;1.63;;;;;;;;;;4966483;28;20054;-57
2023/11/11 18:16:35;;;;;;;3.70;1.95;;;;;;;;;;4977418;28;20118;-57
2023/11/11 18:19:37;;;;;;;2.88;1.85;;;;;;;;;;4974089;28;20043;-56
2023/11/11 18:22:34;;;;;;;2.83;2.08;;;;;;;;;;4967616;28;20744;-58
2023/11/11 18:25:15;;;;;;;3.50;1.95;;;;;;;;;;4966107;28;20628;-57
2023/11/11 18:28:06;;;;;;;2.55;1.63;;;;;;;;;;4975569;28;20065;-57
2023/11/11 18:30:46;;;;;;;4.60;1.80;;;;;;;;;;4943537;28;20053;-56
2023/11/11 18:33:22;;;;;;;3.67;2.17;;;;;;;;;;4987101;28;20129;-58
2023/11/11 18:35:52;;;;;;;3.45;2.40;;;;;;;;;;4972789;28;20560;-58
2023/11/11 18:38:39;;;;;;;2.57;1.83;;;;;;;;;;4960059;28;20023;-57
2023/11/11 18:41:25;;;;;;;;;;;;;;;;;;;;;
2023/11/11 18:44:05;;;;;;;6.30;1.60;;;;;;;;;;4976110;28;20046;-52
2023/11/11 18:46:37;;;;;;;3.35;2.08;;;;;;;;;;4974565;28;20125;-57
2023/11/11 18:49:09;;;;;;;2.95;1.73;;;;;;;;;;4969652;28;20054;-57
2023/11/11 18:51:42;;;;;;;3.42;1.60;;;;;;;;;;4982186;28;20140;-57
2023/11/11 18:54:12;;;;;;;3.60;2.00;;;;;;;;;;4977778;28;20030;-57
2023/11/11 18:57:21;;;;;;;2.70;1.73;;;;;;;;;;4975518;28;20413;-58
2023/11/11 19:05:40;;;;;;;;;;;;;;;;;;;;;
2023/11/11 19:08:16;;;;;;;;;;;;;;;;;;;;;
2023/11/11 19:10:47;;;;;;;3.58;1.80;;;;;;;;;;4958714;28;20068;-57
2023/11/11 19:13:52;;;;;;;;;;;;;;;;;;;;;
2023/11/11 19:16:24;;;;;;;2.30;1.48;;;;;;;;;;4970195;28;20053;-58
2023/11/11 19:19:27;;;;;;;4.25;2.53;;;;;;;;;;4961474;28;20381;-58
2023/11/11 19:25:00;;;;;;;3.38;1.40;;;;;;;;;;4960215;28;20030;-57
2023/11/11 19:27:35;;;;;;;2.47;1.75;;;;;;;;;;4968084;28;20361;-57
2023/11/11 19:30:11;;;;;;;2.60;1.55;;;;;;;;;;4966761;28;20061;-58
2023/11/11 19:32:43;;;;;;;3.92;2.08;;;;;;;;;;4969778;28;20165;-55
2023/11/11 19:35:28;;;;;;;3.42;2.05;;;;;;;;;;4966029;28;20434;-57
2023/11/11 19:38:00;;;;;;;3.30;2.33;;;;;;;;;;4966348;28;20023;-57
2023/11/11 19:40:32;;;;;;;2.92;2.00;;;;;;;;;;4968345;28;20077;-58
2023/11/11 19:43:22;;;;;;;3.90;2.35;;;;;;;;;;4969060;28;20125;-56
2023/11/11 19:46:12;;;;;;;5.70;2.70;;;;;;;;;;4969265;28;20026;-58
2023/11/11 19:48:46;;;;;;;3.22;1.85;;;;;;;;;;4968218;28;20422;-58
2023/11/11 19:51:42;;;;;;;5.05;2.30;;;;;;;;;;4965549;28;20189;-59
2023/11/11 19:54:41;;;;;;;2.97;1.92;;;;;;;;;;4955912;28;20512;-58
2023/11/11 19:57:35;;;;;;;3.70;1.48;;;;;;;;;;4965864;28;20047;-57
2023/11/11 20:00:33;;;;;;;3.72;2.28;;;;;;;;;;4960853;28;20573;-59
2023/11/11 20:09:46;;;;;;;6.50;2.22;;;;;;;;;;4959059;28;20059;-58
2023/11/11 20:12:43;;;;;;;6.72;2.58;;;;;;;;;;4970058;28;20481;-59
2023/11/11 20:15:41;;;;;;;3.17;2.28;;;;;;;;;;4962399;28;20079;-57
2023/11/11 20:18:19;;;;;;;3.15;2.17;;;;;;;;;;4959793;28;20023;-59
2023/11/11 20:21:13;;;;;;;3.63;2.38;;;;;;;;;;4955797;28;20027;-58
2023/11/11 20:24:00;;;;;;;3.25;2.15;;;;;;;;;;4966372;28;20041;-57
2023/11/11 20:26:51;;;;;;;2.95;1.83;;;;;;;;;;4974696;28;20038;-58
2023/11/11 20:29:17;;;;;;;2.50;1.67;;;;;;;;;;4974052;28;20461;-56
2023/11/11 20:32:17;;;;;;;4.05;2.20;;;;;;;;;;4972090;28;20035;-59
2023/11/11 20:34:54;;;;;;;3.25;2.10;;;;;;;;;;4968508;28;20093;-59
2023/11/11 20:37:52;;;;;;;4.90;2.15;;;;;;;;;;4972761;28;20027;-58
2023/11/11 20:40:19;;;;;;;3.35;2.30;;;;;;;;;;4971971;28;20050;-58
2023/11/11 20:43:11;;;;;;;3.10;1.85;;;;;;;;;;4975993;28;20043;-56
2023/11/11 20:45:43;;;;;;;5.65;1.73;;;;;;;;;;4976302;28;20035;-58
2023/11/11 20:48:35;;;;;;;4.35;2.38;;;;;;;;;;4977128;28;20039;-57
2023/11/11 20:51:05;;;;;;;2.67;1.90;;;;;;;;;;4977916;28;20027;-58
2023/11/11 20:53:39;;;;;;;3.38;2.30;;;;;;;;;;4977497;28;20105;-57
2023/11/11 20:56:22;;;;;;;3.25;1.67;;;;;;;;;;4977912;28;20660;-58
2023/11/11 20:59:02;;;;;;;2.70;1.75;;;;;;;;;;4976860;28;20125;-58
2023/11/11 21:01:40;;;;;;;4.75;2.72;;;;;;;;;;4977337;28;20062;-57
2023/11/11 21:04:07;;;;;;;3.75;2.42;;;;;;;;;;4979856;28;20039;-59
2023/11/11 21:06:49;;;;;;;2.97;2.35;;;;;;;;;;4977801;28;20053;-59
2023/11/11 21:09:16;;;;;;;5.07;2.13;;;;;;;;;;4977844;28;20043;-59